sensor_id;sensor_type;location;lat;lon;timestamp;temperature;humidity
19200;DHT22;9732;52.498;5.408;2022-09-17T00:00:40;15.00;99.90
19200;DHT22;9732;52.498;5.408;2022-09-17T00:03:09;14.90;99.90
19200;DHT22;9732;52.498;5.408;2022-09-17T00:05:36;15.00;99.90
19200;DHT22;9732;52.498;5.408;2022-09-17T00:08:03;15.00;99.90
19200;DHT22;9732;52.498;5.408;2022-09-17T00:10:30;15.00;99.90
19200;DHT22;9732;52.498;5.408;2022-09-17T00:12:57;15.00;99.90
19200;DHT22;9732;52.498;5.408;2022-09-17T00:15:24;14.80;99.90
19200;DHT22;9732;52.498;5.408;2022-09-17T00:17:53;14.70;99.90
19200;DHT22;9732;52.498;5.408;2022-09-17T00:20:23;14.60;99.90
19200;DHT22;9732;52.498;5.408;2022-09-17T00:22:50;14.60;99.90
19200;DHT22;9732;52.498;5.408;2022-09-17T00:25:17;14.60;99.90
19200;DHT22;9732;52.498;5.408;2022-09-17T00:27:44;14.50;99.90
19200;DHT22;9732;52.498;5.408;2022-09-17T00:30:12;14.40;99.90
19200;DHT22;9732;52.498;5.408;2022-09-17T00:32:39;14.30;99.90
19200;DHT22;9732;52.498;5.408;2022-09-17T00:35:06;14.20;99.90
19200;DHT22;9732;52.498;5.408;2022-09-17T00:37:34;14.20;99.90
19200;DHT22;9732;52.498;5.408;2022-09-17T00:40:01;14.20;99.90
19200;DHT22;9732;52.498;5.408;2022-09-17T00:42:28;14.20;99.90
19200;DHT22;9732;52.498;5.408;2022-09-17T00:44:56;14.20;99.90
19200;DHT22;9732;52.498;5.408;2022-09-17T00:47:26;14.10;99.90
19200;DHT22;9732;52.498;5.408;2022-09-17T00:49:58;14.10;99.90
19200;DHT22;9732;52.498;5.408;2022-09-17T00:52:28;14.20;99.90
19200;DHT22;9732;52.498;5.408;2022-09-17T00:55:04;14.20;99.90
19200;DHT22;9732;52.498;5.408;2022-09-17T00:57:32;14.20;99.90
19200;DHT22;9732;52.498;5.408;2022-09-17T00:59:59;14.30;99.90
19200;DHT22;9732;52.498;5.408;2022-09-17T01:02:26;14.30;99.90
19200;DHT22;9732;52.498;5.408;2022-09-17T01:04:53;14.40;99.90
19200;DHT22;9732;52.498;5.408;2022-09-17T01:07:39;14.50;99.90
19200;DHT22;9732;52.498;5.408;2022-09-17T01:10:18;14.50;99.90
19200;DHT22;9732;52.498;5.408;2022-09-17T01:12:55;14.50;99.90
19200;DHT22;9732;52.498;5.408;2022-09-17T01:15:33;14.60;99.90
19200;DHT22;9732;52.498;5.408;2022-09-17T01:18:11;14.60;99.90
19200;DHT22;9732;52.498;5.408;2022-09-17T01:21:12;14.60;99.90
19200;DHT22;9732;52.498;5.408;2022-09-17T01:27:19;14.60;99.90
19200;DHT22;9732;52.498;5.408;2022-09-17T01:30:05;14.60;99.90
19200;DHT22;9732;52.498;5.408;2022-09-17T01:32:38;14.50;99.90
19200;DHT22;9732;52.498;5.408;2022-09-17T01:35:11;14.40;99.90
19200;DHT22;9732;52.498;5.408;2022-09-17T01:37:46;14.40;99.90
19200;DHT22;9732;52.498;5.408;2022-09-17T01:40:17;14.30;99.90
19200;DHT22;9732;52.498;5.408;2022-09-17T01:42:54;14.30;99.90
19200;DHT22;9732;52.498;5.408;2022-09-17T01:45:26;14.30;99.90
19200;DHT22;9732;52.498;5.408;2022-09-17T01:47:59;14.20;99.90
19200;DHT22;9732;52.498;5.408;2022-09-17T01:50:32;14.30;99.90
19200;DHT22;9732;52.498;5.408;2022-09-17T01:53:03;14.20;99.90
19200;DHT22;9732;52.498;5.408;2022-09-17T01:55:35;14.20;99.90
19200;DHT22;9732;52.498;5.408;2022-09-17T01:58:06;14.20;99.90
19200;DHT22;9732;52.498;5.408;2022-09-17T02:00:34;14.30;99.90
19200;DHT22;9732;52.498;5.408;2022-09-17T02:03:07;14.30;99.90
19200;DHT22;9732;52.498;5.408;2022-09-17T02:05:39;14.40;99.90
19200;DHT22;9732;52.498;5.408;2022-09-17T02:08:10;14.40;99.90
19200;DHT22;9732;52.498;5.408;2022-09-17T02:10:43;14.40;99.90
19200;DHT22;9732;52.498;5.408;2022-09-17T02:13:15;14.40;99.90
19200;DHT22;9732;52.498;5.408;2022-09-17T02:15:48;14.40;99.90
19200;DHT22;9732;52.498;5.408;2022-09-17T02:18:24;14.40;99.90
19200;DHT22;9732;52.498;5.408;2022-09-17T02:20:58;14.40;99.90
19200;DHT22;9732;52.498;5.408;2022-09-17T02:23:32;14.50;99.90
19200;DHT22;9732;52.498;5.408;2022-09-17T02:26:05;14.50;99.90
19200;DHT22;9732;52.498;5.408;2022-09-17T02:28:36;14.50;99.90
19200;DHT22;9732;52.498;5.408;2022-09-17T02:31:05;14.50;99.90
19200;DHT22;9732;52.498;5.408;2022-09-17T02:33:34;14.50;99.90
19200;DHT22;9732;52.498;5.408;2022-09-17T02:36:01;14.60;99.90
19200;DHT22;9732;52.498;5.408;2022-09-17T02:38:29;14.60;99.90
19200;DHT22;9732;52.498;5.408;2022-09-17T02:41:01;14.50;99.90
19200;DHT22;9732;52.498;5.408;2022-09-17T02:43:37;14.50;99.90
19200;DHT22;9732;52.498;5.408;2022-09-17T02:46:25;14.50;99.90
19200;DHT22;9732;52.498;5.408;2022-09-17T02:49:09;14.40;99.90
19200;DHT22;9732;52.498;5.408;2022-09-17T02:51:46;14.40;99.90
19200;DHT22;9732;52.498;5.408;2022-09-17T02:54:20;14.40;99.90
19200;DHT22;9732;52.498;5.408;2022-09-17T02:56:58;14.50;99.90
19200;DHT22;9732;52.498;5.408;2022-09-17T02:59:33;14.50;99.90
19200;DHT22;9732;52.498;5.408;2022-09-17T03:02:06;14.50;99.90
19200;DHT22;9732;52.498;5.408;2022-09-17T03:04:36;14.40;99.90
19200;DHT22;9732;52.498;5.408;2022-09-17T03:07:04;14.40;99.90
19200;DHT22;9732;52.498;5.408;2022-09-17T03:09:33;14.40;99.90
19200;DHT22;9732;52.498;5.408;2022-09-17T03:12:00;14.40;99.90
19200;DHT22;9732;52.498;5.408;2022-09-17T03:14:28;14.30;99.90
19200;DHT22;9732;52.498;5.408;2022-09-17T03:16:54;14.30;99.90
19200;DHT22;9732;52.498;5.408;2022-09-17T03:19:21;14.30;99.90
19200;DHT22;9732;52.498;5.408;2022-09-17T03:21:50;14.20;99.90
19200;DHT22;9732;52.498;5.408;2022-09-17T03:24:16;14.20;99.90
19200;DHT22;9732;52.498;5.408;2022-09-17T03:26:43;14.20;99.90
19200;DHT22;9732;52.498;5.408;2022-09-17T03:29:11;14.20;99.90
19200;DHT22;9732;52.498;5.408;2022-09-17T03:31:38;14.20;99.90
19200;DHT22;9732;52.498;5.408;2022-09-17T03:34:05;14.20;99.90
19200;DHT22;9732;52.498;5.408;2022-09-17T03:36:32;14.20;99.90
19200;DHT22;9732;52.498;5.408;2022-09-17T03:39:00;14.20;99.90
19200;DHT22;9732;52.498;5.408;2022-09-17T03:41:27;14.20;99.90
19200;DHT22;9732;52.498;5.408;2022-09-17T03:43:54;14.20;99.90
19200;DHT22;9732;52.498;5.408;2022-09-17T03:46:20;14.20;99.90
19200;DHT22;9732;52.498;5.408;2022-09-17T03:48:47;14.10;99.90
19200;DHT22;9732;52.498;5.408;2022-09-17T03:51:14;14.20;99.90
19200;DHT22;9732;52.498;5.408;2022-09-17T03:53:41;14.20;99.90
19200;DHT22;9732;52.498;5.408;2022-09-17T03:56:09;14.30;99.90
19200;DHT22;9732;52.498;5.408;2022-09-17T03:58:35;14.30;99.90
19200;DHT22;9732;52.498;5.408;2022-09-17T04:01:03;14.20;99.90
19200;DHT22;9732;52.498;5.408;2022-09-17T04:03:31;14.10;99.90
19200;DHT22;9732;52.498;5.408;2022-09-17T04:05:58;14.00;99.90
19200;DHT22;9732;52.498;5.408;2022-09-17T04:08:25;13.80;99.90
19200;DHT22;9732;52.498;5.408;2022-09-17T04:10:51;13.80;99.90
19200;DHT22;9732;52.498;5.408;2022-09-17T04:13:20;13.80;99.90
19200;DHT22;9732;52.498;5.408;2022-09-17T04:15:46;13.80;99.90
19200;DHT22;9732;52.498;5.408;2022-09-17T04:18:13;13.80;99.90
19200;DHT22;9732;52.498;5.408;2022-09-17T04:20:40;13.90;99.90
19200;DHT22;9732;52.498;5.408;2022-09-17T04:23:09;13.80;99.90
19200;DHT22;9732;52.498;5.408;2022-09-17T04:25:36;13.90;99.90
19200;DHT22;9732;52.498;5.408;2022-09-17T04:28:03;13.90;99.90
19200;DHT22;9732;52.498;5.408;2022-09-17T04:30:31;14.00;99.90
19200;DHT22;9732;52.498;5.408;2022-09-17T04:32:58;14.00;99.90
19200;DHT22;9732;52.498;5.408;2022-09-17T04:35:25;14.00;99.90
19200;DHT22;9732;52.498;5.408;2022-09-17T04:37:52;14.10;99.90
19200;DHT22;9732;52.498;5.408;2022-09-17T04:40:19;14.10;99.90
19200;DHT22;9732;52.498;5.408;2022-09-17T04:42:46;14.10;99.90
19200;DHT22;9732;52.498;5.408;2022-09-17T04:45:13;14.10;99.90
19200;DHT22;9732;52.498;5.408;2022-09-17T04:47:41;14.10;99.90
19200;DHT22;9732;52.498;5.408;2022-09-17T04:50:08;14.00;99.90
19200;DHT22;9732;52.498;5.408;2022-09-17T04:52:35;14.00;99.90
19200;DHT22;9732;52.498;5.408;2022-09-17T04:55:02;14.10;99.90
19200;DHT22;9732;52.498;5.408;2022-09-17T04:57:29;14.00;99.90
19200;DHT22;9732;52.498;5.408;2022-09-17T04:59:56;14.00;99.90
19200;DHT22;9732;52.498;5.408;2022-09-17T05:02:22;14.00;99.90
19200;DHT22;9732;52.498;5.408;2022-09-17T05:04:50;14.00;99.90
19200;DHT22;9732;52.498;5.408;2022-09-17T05:07:17;14.00;99.90
19200;DHT22;9732;52.498;5.408;2022-09-17T05:09:44;13.90;99.90
19200;DHT22;9732;52.498;5.408;2022-09-17T05:12:10;13.90;99.90
19200;DHT22;9732;52.498;5.408;2022-09-17T05:14:37;13.90;99.90
19200;DHT22;9732;52.498;5.408;2022-09-17T05:17:04;13.90;99.90
19200;DHT22;9732;52.498;5.408;2022-09-17T05:19:31;13.90;99.90
19200;DHT22;9732;52.498;5.408;2022-09-17T05:21:59;13.90;99.90
19200;DHT22;9732;52.498;5.408;2022-09-17T05:24:25;13.90;99.90
19200;DHT22;9732;52.498;5.408;2022-09-17T05:26:52;14.00;99.90
19200;DHT22;9732;52.498;5.408;2022-09-17T05:29:19;14.00;99.90
19200;DHT22;9732;52.498;5.408;2022-09-17T05:31:46;14.00;99.90
19200;DHT22;9732;52.498;5.408;2022-09-17T05:34:12;14.10;99.90
19200;DHT22;9732;52.498;5.408;2022-09-17T05:36:39;14.00;99.90
19200;DHT22;9732;52.498;5.408;2022-09-17T05:39:07;14.00;99.90
19200;DHT22;9732;52.498;5.408;2022-09-17T05:41:34;13.90;99.90
19200;DHT22;9732;52.498;5.408;2022-09-17T05:44:01;13.90;99.90
19200;DHT22;9732;52.498;5.408;2022-09-17T05:46:28;13.90;99.90
19200;DHT22;9732;52.498;5.408;2022-09-17T05:48:55;13.80;99.90
19200;DHT22;9732;52.498;5.408;2022-09-17T05:51:22;13.90;99.90
19200;DHT22;9732;52.498;5.408;2022-09-17T05:53:49;13.90;99.90
19200;DHT22;9732;52.498;5.408;2022-09-17T05:56:17;13.90;99.90
19200;DHT22;9732;52.498;5.408;2022-09-17T05:58:44;13.80;99.90
19200;DHT22;9732;52.498;5.408;2022-09-17T06:01:10;13.80;99.90
19200;DHT22;9732;52.498;5.408;2022-09-17T06:03:40;13.80;99.90
19200;DHT22;9732;52.498;5.408;2022-09-17T06:06:07;13.80;99.90
19200;DHT22;9732;52.498;5.408;2022-09-17T06:08:34;13.80;99.90
19200;DHT22;9732;52.498;5.408;2022-09-17T06:11:03;13.70;99.90
19200;DHT22;9732;52.498;5.408;2022-09-17T06:13:31;13.70;99.90
19200;DHT22;9732;52.498;5.408;2022-09-17T06:15:59;13.70;99.90
19200;DHT22;9732;52.498;5.408;2022-09-17T06:18:26;13.70;99.90
19200;DHT22;9732;52.498;5.408;2022-09-17T06:20:53;13.70;99.90
19200;DHT22;9732;52.498;5.408;2022-09-17T06:23:20;13.80;99.90
19200;DHT22;9732;52.498;5.408;2022-09-17T06:25:52;13.80;99.90
19200;DHT22;9732;52.498;5.408;2022-09-17T06:28:20;13.80;99.90
19200;DHT22;9732;52.498;5.408;2022-09-17T06:30:48;13.80;99.90
19200;DHT22;9732;52.498;5.408;2022-09-17T06:33:17;13.80;99.90
19200;DHT22;9732;52.498;5.408;2022-09-17T06:35:44;13.80;99.90
19200;DHT22;9732;52.498;5.408;2022-09-17T06:38:10;13.80;99.90
19200;DHT22;9732;52.498;5.408;2022-09-17T06:40:37;13.90;99.90
19200;DHT22;9732;52.498;5.408;2022-09-17T06:43:04;13.90;99.90
19200;DHT22;9732;52.498;5.408;2022-09-17T06:45:31;14.00;99.90
19200;DHT22;9732;52.498;5.408;2022-09-17T06:48:02;14.00;99.90
19200;DHT22;9732;52.498;5.408;2022-09-17T06:50:29;14.00;99.90
19200;DHT22;9732;52.498;5.408;2022-09-17T06:52:56;14.10;99.90
19200;DHT22;9732;52.498;5.408;2022-09-17T06:55:23;14.00;99.90
19200;DHT22;9732;52.498;5.408;2022-09-17T06:57:49;14.00;99.90
19200;DHT22;9732;52.498;5.408;2022-09-17T07:00:16;14.00;99.90
19200;DHT22;9732;52.498;5.408;2022-09-17T07:02:43;14.00;99.90
19200;DHT22;9732;52.498;5.408;2022-09-17T07:05:21;14.00;99.90
19200;DHT22;9732;52.498;5.408;2022-09-17T07:07:47;14.10;99.90
19200;DHT22;9732;52.498;5.408;2022-09-17T07:10:14;14.10;99.90
19200;DHT22;9732;52.498;5.408;2022-09-17T07:12:42;14.10;99.90
19200;DHT22;9732;52.498;5.408;2022-09-17T07:15:10;14.10;99.90
19200;DHT22;9732;52.498;5.408;2022-09-17T07:17:37;14.20;99.90
19200;DHT22;9732;52.498;5.408;2022-09-17T07:20:05;14.30;99.90
19200;DHT22;9732;52.498;5.408;2022-09-17T07:22:33;14.30;99.90
19200;DHT22;9732;52.498;5.408;2022-09-17T07:25:00;14.30;99.90
19200;DHT22;9732;52.498;5.408;2022-09-17T07:27:27;14.30;99.90
19200;DHT22;9732;52.498;5.408;2022-09-17T07:29:54;14.30;99.90
19200;DHT22;9732;52.498;5.408;2022-09-17T07:32:21;14.20;99.90
19200;DHT22;9732;52.498;5.408;2022-09-17T07:34:48;14.20;99.90
19200;DHT22;9732;52.498;5.408;2022-09-17T07:37:15;14.20;99.90
19200;DHT22;9732;52.498;5.408;2022-09-17T07:39:43;14.20;99.90
19200;DHT22;9732;52.498;5.408;2022-09-17T07:42:10;14.10;99.90
19200;DHT22;9732;52.498;5.408;2022-09-17T07:44:36;14.20;99.90
19200;DHT22;9732;52.498;5.408;2022-09-17T07:47:03;14.20;99.90
19200;DHT22;9732;52.498;5.408;2022-09-17T07:49:30;14.30;99.90
19200;DHT22;9732;52.498;5.408;2022-09-17T07:51:57;14.30;99.90
19200;DHT22;9732;52.498;5.408;2022-09-17T07:54:29;14.40;99.90
19200;DHT22;9732;52.498;5.408;2022-09-17T07:56:57;14.40;99.90
19200;DHT22;9732;52.498;5.408;2022-09-17T07:59:24;14.40;99.90
19200;DHT22;9732;52.498;5.408;2022-09-17T08:01:51;14.30;99.90
19200;DHT22;9732;52.498;5.408;2022-09-17T08:04:17;14.30;99.90
19200;DHT22;9732;52.498;5.408;2022-09-17T08:06:44;14.30;99.90
19200;DHT22;9732;52.498;5.408;2022-09-17T08:09:13;14.30;99.90
19200;DHT22;9732;52.498;5.408;2022-09-17T08:11:41;14.20;99.90
19200;DHT22;9732;52.498;5.408;2022-09-17T08:14:11;14.20;99.90
19200;DHT22;9732;52.498;5.408;2022-09-17T08:16:38;14.40;99.90
19200;DHT22;9732;52.498;5.408;2022-09-17T08:19:05;14.40;99.90
19200;DHT22;9732;52.498;5.408;2022-09-17T08:21:33;14.40;99.90
19200;DHT22;9732;52.498;5.408;2022-09-17T08:24:00;14.40;99.90
19200;DHT22;9732;52.498;5.408;2022-09-17T08:26:27;14.50;99.90
19200;DHT22;9732;52.498;5.408;2022-09-17T08:28:54;14.50;99.90
19200;DHT22;9732;52.498;5.408;2022-09-17T08:31:24;14.60;99.90
19200;DHT22;9732;52.498;5.408;2022-09-17T08:33:51;14.50;99.90
19200;DHT22;9732;52.498;5.408;2022-09-17T08:36:18;14.60;99.90
19200;DHT22;9732;52.498;5.408;2022-09-17T08:38:47;14.60;99.90
19200;DHT22;9732;52.498;5.408;2022-09-17T08:41:22;14.70;99.90
19200;DHT22;9732;52.498;5.408;2022-09-17T08:44:00;14.70;99.90
19200;DHT22;9732;52.498;5.408;2022-09-17T08:46:31;14.80;99.90
19200;DHT22;9732;52.498;5.408;2022-09-17T08:49:06;14.80;99.90
19200;DHT22;9732;52.498;5.408;2022-09-17T08:51:41;14.70;99.90
19200;DHT22;9732;52.498;5.408;2022-09-17T08:54:17;14.60;99.90
19200;DHT22;9732;52.498;5.408;2022-09-17T08:56:55;14.50;99.90
19200;DHT22;9732;52.498;5.408;2022-09-17T08:59:27;14.60;99.90
19200;DHT22;9732;52.498;5.408;2022-09-17T09:02:07;14.60;99.90
19200;DHT22;9732;52.498;5.408;2022-09-17T09:04:55;14.70;99.90
19200;DHT22;9732;52.498;5.408;2022-09-17T09:07:24;14.80;99.90
19200;DHT22;9732;52.498;5.408;2022-09-17T09:10:00;15.00;99.90
19200;DHT22;9732;52.498;5.408;2022-09-17T09:12:32;15.10;99.90
19200;DHT22;9732;52.498;5.408;2022-09-17T09:15:01;15.20;99.90
19200;DHT22;9732;52.498;5.408;2022-09-17T09:17:39;15.30;99.90
19200;DHT22;9732;52.498;5.408;2022-09-17T09:20:14;15.40;99.90
19200;DHT22;9732;52.498;5.408;2022-09-17T09:22:48;15.50;99.90
19200;DHT22;9732;52.498;5.408;2022-09-17T09:25:21;15.60;99.90
19200;DHT22;9732;52.498;5.408;2022-09-17T09:28:09;15.80;99.90
19200;DHT22;9732;52.498;5.408;2022-09-17T09:30:45;15.60;99.90
19200;DHT22;9732;52.498;5.408;2022-09-17T09:33:23;15.10;99.90
19200;DHT22;9732;52.498;5.408;2022-09-17T09:35:52;14.80;99.90
19200;DHT22;9732;52.498;5.408;2022-09-17T09:38:23;14.40;99.90
19200;DHT22;9732;52.498;5.408;2022-09-17T09:40:57;14.10;99.90
19200;DHT22;9732;52.498;5.408;2022-09-17T09:43:35;13.80;99.90
19200;DHT22;9732;52.498;5.408;2022-09-17T09:46:23;13.60;99.90
19200;DHT22;9732;52.498;5.408;2022-09-17T09:49:04;13.60;99.90
19200;DHT22;9732;52.498;5.408;2022-09-17T09:51:53;14.00;99.90
19200;DHT22;9732;52.498;5.408;2022-09-17T09:54:31;14.50;99.90
19200;DHT22;9732;52.498;5.408;2022-09-17T09:57:03;14.90;99.90
19200;DHT22;9732;52.498;5.408;2022-09-17T09:59:32;15.20;99.90
19200;DHT22;9732;52.498;5.408;2022-09-17T10:02:00;15.20;99.90
19200;DHT22;9732;52.498;5.408;2022-09-17T10:04:29;15.10;99.90
19200;DHT22;9732;52.498;5.408;2022-09-17T10:07:00;14.90;99.90
19200;DHT22;9732;52.498;5.408;2022-09-17T10:09:29;14.80;99.90
19200;DHT22;9732;52.498;5.408;2022-09-17T10:12:13;14.80;99.90
19200;DHT22;9732;52.498;5.408;2022-09-17T10:14:41;14.90;99.90
19200;DHT22;9732;52.498;5.408;2022-09-17T10:17:16;15.20;99.90
19200;DHT22;9732;52.498;5.408;2022-09-17T10:20:07;15.40;99.90
19200;DHT22;9732;52.498;5.408;2022-09-17T10:22:36;15.60;99.90
19200;DHT22;9732;52.498;5.408;2022-09-17T10:25:05;15.70;99.90
19200;DHT22;9732;52.498;5.408;2022-09-17T10:27:33;15.90;99.90
19200;DHT22;9732;52.498;5.408;2022-09-17T10:30:13;15.90;99.90
19200;DHT22;9732;52.498;5.408;2022-09-17T10:32:40;16.00;99.90
19200;DHT22;9732;52.498;5.408;2022-09-17T10:35:25;16.00;99.90
19200;DHT22;9732;52.498;5.408;2022-09-17T10:37:53;16.00;99.90
19200;DHT22;9732;52.498;5.408;2022-09-17T10:40:28;15.90;99.90
19200;DHT22;9732;52.498;5.408;2022-09-17T10:43:20;15.90;99.90
19200;DHT22;9732;52.498;5.408;2022-09-17T10:45:55;16.10;99.90
19200;DHT22;9732;52.498;5.408;2022-09-17T10:48:23;16.10;99.90
19200;DHT22;9732;52.498;5.408;2022-09-17T10:50:55;16.10;99.90
19200;DHT22;9732;52.498;5.408;2022-09-17T10:53:24;15.90;99.90
19200;DHT22;9732;52.498;5.408;2022-09-17T10:55:54;15.70;99.90
19200;DHT22;9732;52.498;5.408;2022-09-17T10:58:34;15.20;99.90
19200;DHT22;9732;52.498;5.408;2022-09-17T11:01:09;15.10;99.90
19200;DHT22;9732;52.498;5.408;2022-09-17T11:03:52;15.20;99.90
19200;DHT22;9732;52.498;5.408;2022-09-17T11:07:01;15.20;99.90
19200;DHT22;9732;52.498;5.408;2022-09-17T11:09:41;15.00;99.90
19200;DHT22;9732;52.498;5.408;2022-09-17T11:12:33;15.00;99.90
19200;DHT22;9732;52.498;5.408;2022-09-17T11:15:12;15.00;99.90
19200;DHT22;9732;52.498;5.408;2022-09-17T11:18:06;14.90;99.90
19200;DHT22;9732;52.498;5.408;2022-09-17T11:21:08;14.80;99.90
19200;DHT22;9732;52.498;5.408;2022-09-17T11:24:14;14.90;99.90
19200;DHT22;9732;52.498;5.408;2022-09-17T11:26:50;14.90;99.90
19200;DHT22;9732;52.498;5.408;2022-09-17T11:29:32;15.20;99.90
19200;DHT22;9732;52.498;5.408;2022-09-17T11:32:13;15.40;99.90
19200;DHT22;9732;52.498;5.408;2022-09-17T11:34:45;15.50;99.90
19200;DHT22;9732;52.498;5.408;2022-09-17T11:37:17;15.30;99.90
19200;DHT22;9732;52.498;5.408;2022-09-17T11:39:50;15.00;99.90
19200;DHT22;9732;52.498;5.408;2022-09-17T11:42:23;14.80;99.90
19200;DHT22;9732;52.498;5.408;2022-09-17T11:44:54;14.60;99.90
19200;DHT22;9732;52.498;5.408;2022-09-17T11:47:28;14.50;99.90
19200;DHT22;9732;52.498;5.408;2022-09-17T11:50:00;14.50;99.90
19200;DHT22;9732;52.498;5.408;2022-09-17T11:52:32;14.50;99.90
19200;DHT22;9732;52.498;5.408;2022-09-17T11:55:07;14.60;99.90
19200;DHT22;9732;52.498;5.408;2022-09-17T11:57:38;14.90;99.90
19200;DHT22;9732;52.498;5.408;2022-09-17T12:00:13;15.00;99.90
19200;DHT22;9732;52.498;5.408;2022-09-17T12:02:47;15.10;99.90
19200;DHT22;9732;52.498;5.408;2022-09-17T12:05:18;15.20;99.90
19200;DHT22;9732;52.498;5.408;2022-09-17T12:07:51;15.00;99.90
19200;DHT22;9732;52.498;5.408;2022-09-17T12:10:37;14.70;99.90
19200;DHT22;9732;52.498;5.408;2022-09-17T12:13:25;14.40;99.90
19200;DHT22;9732;52.498;5.408;2022-09-17T12:16:08;14.30;99.90
19200;DHT22;9732;52.498;5.408;2022-09-17T12:18:45;14.40;99.90
19200;DHT22;9732;52.498;5.408;2022-09-17T12:21:17;14.40;99.90
19200;DHT22;9732;52.498;5.408;2022-09-17T12:23:49;14.50;99.90
19200;DHT22;9732;52.498;5.408;2022-09-17T12:26:32;14.60;99.90
19200;DHT22;9732;52.498;5.408;2022-09-17T12:29:11;14.70;99.90
19200;DHT22;9732;52.498;5.408;2022-09-17T12:31:45;14.90;99.90
19200;DHT22;9732;52.498;5.408;2022-09-17T12:34:27;15.20;99.90
19200;DHT22;9732;52.498;5.408;2022-09-17T12:37:06;15.40;99.90
19200;DHT22;9732;52.498;5.408;2022-09-17T12:40:03;15.50;99.90
19200;DHT22;9732;52.498;5.408;2022-09-17T12:42:46;15.60;99.90
19200;DHT22;9732;52.498;5.408;2022-09-17T12:45:42;15.80;99.90
19200;DHT22;9732;52.498;5.408;2022-09-17T12:48:22;15.80;99.90
19200;DHT22;9732;52.498;5.408;2022-09-17T12:51:05;15.80;99.90
19200;DHT22;9732;52.498;5.408;2022-09-17T12:53:36;15.80;99.90
19200;DHT22;9732;52.498;5.408;2022-09-17T12:56:16;15.80;99.90
19200;DHT22;9732;52.498;5.408;2022-09-17T12:59:07;15.60;99.90
19200;DHT22;9732;52.498;5.408;2022-09-17T13:01:42;15.60;99.90
19200;DHT22;9732;52.498;5.408;2022-09-17T13:04:18;15.60;99.90
19200;DHT22;9732;52.498;5.408;2022-09-17T13:07:13;15.80;99.90
19200;DHT22;9732;52.498;5.408;2022-09-17T13:10:08;15.80;99.90
19200;DHT22;9732;52.498;5.408;2022-09-17T13:12:40;15.90;99.90
19200;DHT22;9732;52.498;5.408;2022-09-17T13:15:40;15.90;99.90
19200;DHT22;9732;52.498;5.408;2022-09-17T13:18:13;15.90;99.90
19200;DHT22;9732;52.498;5.408;2022-09-17T13:20:59;15.80;99.90
19200;DHT22;9732;52.498;5.408;2022-09-17T13:23:32;15.90;99.90
19200;DHT22;9732;52.498;5.408;2022-09-17T13:26:00;15.90;99.90
19200;DHT22;9732;52.498;5.408;2022-09-17T13:28:36;16.00;99.90
19200;DHT22;9732;52.498;5.408;2022-09-17T13:31:04;16.10;99.90
19200;DHT22;9732;52.498;5.408;2022-09-17T13:33:54;16.20;99.90
19200;DHT22;9732;52.498;5.408;2022-09-17T13:36:42;16.30;99.90
19200;DHT22;9732;52.498;5.408;2022-09-17T13:39:30;16.30;99.90
19200;DHT22;9732;52.498;5.408;2022-09-17T13:42:01;16.00;99.90
19200;DHT22;9732;52.498;5.408;2022-09-17T13:44:34;15.60;99.90
19200;DHT22;9732;52.498;5.408;2022-09-17T13:47:22;15.40;99.90
19200;DHT22;9732;52.498;5.408;2022-09-17T13:49:54;15.10;99.90
19200;DHT22;9732;52.498;5.408;2022-09-17T13:52:40;15.10;99.90
19200;DHT22;9732;52.498;5.408;2022-09-17T13:55:08;15.00;99.90
19200;DHT22;9732;52.498;5.408;2022-09-17T13:57:55;15.10;99.90
19200;DHT22;9732;52.498;5.408;2022-09-17T14:00:48;15.20;99.90
19200;DHT22;9732;52.498;5.408;2022-09-17T14:03:53;15.40;99.90
19200;DHT22;9732;52.498;5.408;2022-09-17T14:06:47;15.60;99.90
19200;DHT22;9732;52.498;5.408;2022-09-17T14:09:33;15.70;99.90
19200;DHT22;9732;52.498;5.408;2022-09-17T14:12:00;15.70;99.90
19200;DHT22;9732;52.498;5.408;2022-09-17T14:14:44;15.60;99.90
19200;DHT22;9732;52.498;5.408;2022-09-17T14:17:47;15.20;99.90
19200;DHT22;9732;52.498;5.408;2022-09-17T14:20:18;14.90;99.90
19200;DHT22;9732;52.498;5.408;2022-09-17T14:22:53;14.70;99.90
19200;DHT22;9732;52.498;5.408;2022-09-17T14:25:26;14.50;99.90
19200;DHT22;9732;52.498;5.408;2022-09-17T14:27:56;14.50;99.90
19200;DHT22;9732;52.498;5.408;2022-09-17T14:30:25;14.50;99.90
19200;DHT22;9732;52.498;5.408;2022-09-17T14:33:02;14.50;99.90
19200;DHT22;9732;52.498;5.408;2022-09-17T14:35:35;14.60;99.90
19200;DHT22;9732;52.498;5.408;2022-09-17T14:38:06;14.60;99.90
19200;DHT22;9732;52.498;5.408;2022-09-17T14:40:34;14.70;99.90
19200;DHT22;9732;52.498;5.408;2022-09-17T14:43:02;14.80;99.90
19200;DHT22;9732;52.498;5.408;2022-09-17T14:45:31;14.80;99.90
19200;DHT22;9732;52.498;5.408;2022-09-17T14:48:27;14.90;99.90
19200;DHT22;9732;52.498;5.408;2022-09-17T14:51:26;15.00;99.90
19200;DHT22;9732;52.498;5.408;2022-09-17T14:54:19;15.00;99.90
19200;DHT22;9732;52.498;5.408;2022-09-17T14:56:55;15.20;99.90
19200;DHT22;9732;52.498;5.408;2022-09-17T14:59:47;15.10;99.90
19200;DHT22;9732;52.498;5.408;2022-09-17T15:02:27;15.20;99.90
19200;DHT22;9732;52.498;5.408;2022-09-17T15:04:54;15.20;99.90
19200;DHT22;9732;52.498;5.408;2022-09-17T15:07:24;15.20;99.90
19200;DHT22;9732;52.498;5.408;2022-09-17T15:09:52;15.20;99.90
19200;DHT22;9732;52.498;5.408;2022-09-17T15:12:24;15.20;99.90
19200;DHT22;9732;52.498;5.408;2022-09-17T15:14:53;15.20;99.90
19200;DHT22;9732;52.498;5.408;2022-09-17T15:17:21;15.20;99.90
19200;DHT22;9732;52.498;5.408;2022-09-17T15:19:50;15.20;99.90
19200;DHT22;9732;52.498;5.408;2022-09-17T15:22:20;15.30;99.90
19200;DHT22;9732;52.498;5.408;2022-09-17T15:24:54;15.20;99.90
19200;DHT22;9732;52.498;5.408;2022-09-17T15:27:25;15.20;99.90
19200;DHT22;9732;52.498;5.408;2022-09-17T15:29:55;15.20;99.90
19200;DHT22;9732;52.498;5.408;2022-09-17T15:32:24;15.30;99.90
19200;DHT22;9732;52.498;5.408;2022-09-17T15:35:19;15.40;99.90
19200;DHT22;9732;52.498;5.408;2022-09-17T15:37:47;15.40;99.90
19200;DHT22;9732;52.498;5.408;2022-09-17T15:40:25;15.40;99.90
19200;DHT22;9732;52.498;5.408;2022-09-17T15:43:00;15.40;99.90
19200;DHT22;9732;52.498;5.408;2022-09-17T15:45:28;15.40;99.90
19200;DHT22;9732;52.498;5.408;2022-09-17T15:47:57;15.40;99.90
19200;DHT22;9732;52.498;5.408;2022-09-17T15:50:26;15.30;99.90
19200;DHT22;9732;52.498;5.408;2022-09-17T15:53:13;15.30;99.90
19200;DHT22;9732;52.498;5.408;2022-09-17T15:55:43;15.30;99.90
19200;DHT22;9732;52.498;5.408;2022-09-17T15:58:24;15.30;99.90
19200;DHT22;9732;52.498;5.408;2022-09-17T16:04:16;15.40;99.90
19200;DHT22;9732;52.498;5.408;2022-09-17T16:06:48;15.20;99.90
19200;DHT22;9732;52.498;5.408;2022-09-17T16:09:46;15.10;99.90
19200;DHT22;9732;52.498;5.408;2022-09-17T16:12:16;14.90;99.90
19200;DHT22;9732;52.498;5.408;2022-09-17T16:14:48;14.90;99.90
19200;DHT22;9732;52.498;5.408;2022-09-17T16:17:27;14.80;99.90
19200;DHT22;9732;52.498;5.408;2022-09-17T16:19:57;14.70;99.90
19200;DHT22;9732;52.498;5.408;2022-09-17T16:22:24;14.70;99.90
19200;DHT22;9732;52.498;5.408;2022-09-17T16:24:56;14.70;99.90
19200;DHT22;9732;52.498;5.408;2022-09-17T16:27:27;14.60;99.90